sensor_id;sensor_type;location;lat;lon;timestamp;P1;durP1;ratioP1;P2;durP2;ratioP2
12076;SDS011;12420;42.676;23.262;2024-02-15T00:00:58;7.63;;;6.83;;
12076;SDS011;12420;42.676;23.262;2024-02-15T00:03:26;9.07;;;7.43;;
12076;SDS011;12420;42.676;23.262;2024-02-15T00:05:52;8.47;;;6.53;;
12076;SDS011;12420;42.676;23.262;2024-02-15T00:08:19;8.97;;;6.90;;
12076;SDS011;12420;42.676;23.262;2024-02-15T00:10:48;8.00;;;7.20;;
12076;SDS011;12420;42.676;23.262;2024-02-15T00:13:15;8.50;;;7.60;;
12076;SDS011;12420;42.676;23.262;2024-02-15T00:15:42;8.50;;;6.87;;
12076;SDS011;12420;42.676;23.262;2024-02-15T00:18:09;8.97;;;6.80;;
12076;SDS011;12420;42.676;23.262;2024-02-15T00:20:35;7.33;;;6.63;;
12076;SDS011;12420;42.676;23.262;2024-02-15T00:23:04;8.97;;;6.90;;
12076;SDS011;12420;42.676;23.262;2024-02-15T00:25:31;9.20;;;6.67;;
12076;SDS011;12420;42.676;23.262;2024-02-15T00:27:59;7.47;;;6.77;;
12076;SDS011;12420;42.676;23.262;2024-02-15T00:30:27;8.83;;;6.70;;
12076;SDS011;12420;42.676;23.262;2024-02-15T00:32:54;8.23;;;6.53;;
12076;SDS011;12420;42.676;23.262;2024-02-15T00:35:20;8.20;;;6.80;;
12076;SDS011;12420;42.676;23.262;2024-02-15T00:37:47;8.87;;;6.93;;
12076;SDS011;12420;42.676;23.262;2024-02-15T00:40:15;7.37;;;6.50;;
12076;SDS011;12420;42.676;23.262;2024-02-15T00:42:42;8.03;;;6.83;;
12076;SDS011;12420;42.676;23.262;2024-02-15T00:45:10;8.03;;;6.63;;
12076;SDS011;12420;42.676;23.262;2024-02-15T00:47:37;7.10;;;6.40;;
12076;SDS011;12420;42.676;23.262;2024-02-15T00:50:07;7.93;;;6.37;;
12076;SDS011;12420;42.676;23.262;2024-02-15T00:52:34;7.20;;;6.40;;
12076;SDS011;12420;42.676;23.262;2024-02-15T00:55:01;8.13;;;6.47;;
12076;SDS011;12420;42.676;23.262;2024-02-15T00:57:28;8.30;;;6.80;;
12076;SDS011;12420;42.676;23.262;2024-02-15T00:59:55;7.60;;;6.80;;
12076;SDS011;12420;42.676;23.262;2024-02-15T01:02:23;7.13;;;6.43;;
12076;SDS011;12420;42.676;23.262;2024-02-15T01:04:50;9.20;;;6.77;;
12076;SDS011;12420;42.676;23.262;2024-02-15T01:07:18;8.13;;;6.50;;
12076;SDS011;12420;42.676;23.262;2024-02-15T01:09:45;8.13;;;6.27;;
12076;SDS011;12420;42.676;23.262;2024-02-15T01:12:11;7.50;;;6.80;;
12076;SDS011;12420;42.676;23.262;2024-02-15T01:14:38;7.73;;;6.40;;
12076;SDS011;12420;42.676;23.262;2024-02-15T01:17:05;7.63;;;6.63;;
12076;SDS011;12420;42.676;23.262;2024-02-15T01:19:34;9.70;;;6.70;;
12076;SDS011;12420;42.676;23.262;2024-02-15T01:22:01;7.17;;;6.00;;
12076;SDS011;12420;42.676;23.262;2024-02-15T01:24:27;7.70;;;6.23;;
12076;SDS011;12420;42.676;23.262;2024-02-15T01:26:55;7.20;;;6.40;;
12076;SDS011;12420;42.676;23.262;2024-02-15T01:29:22;7.70;;;6.60;;
12076;SDS011;12420;42.676;23.262;2024-02-15T01:31:50;7.40;;;6.60;;
12076;SDS011;12420;42.676;23.262;2024-02-15T01:34:17;8.10;;;6.50;;
12076;SDS011;12420;42.676;23.262;2024-02-15T01:36:46;7.33;;;6.50;;
12076;SDS011;12420;42.676;23.262;2024-02-15T01:39:14;8.07;;;6.40;;
12076;SDS011;12420;42.676;23.262;2024-02-15T01:41:41;8.67;;;6.77;;
12076;SDS011;12420;42.676;23.262;2024-02-15T01:44:13;8.27;;;6.50;;
12076;SDS011;12420;42.676;23.262;2024-02-15T01:46:40;8.27;;;6.80;;
12076;SDS011;12420;42.676;23.262;2024-02-15T01:49:08;7.77;;;6.53;;
12076;SDS011;12420;42.676;23.262;2024-02-15T01:51:35;9.00;;;7.13;;
12076;SDS011;12420;42.676;23.262;2024-02-15T01:54:05;8.27;;;7.33;;
12076;SDS011;12420;42.676;23.262;2024-02-15T01:56:31;7.30;;;6.53;;
12076;SDS011;12420;42.676;23.262;2024-02-15T01:58:58;8.43;;;7.17;;
12076;SDS011;12420;42.676;23.262;2024-02-15T02:01:26;9.77;;;7.40;;
12076;SDS011;12420;42.676;23.262;2024-02-15T02:03:54;9.80;;;6.67;;
12076;SDS011;12420;42.676;23.262;2024-02-15T02:06:22;8.17;;;6.80;;
12076;SDS011;12420;42.676;23.262;2024-02-15T02:08:49;9.83;;;7.13;;
12076;SDS011;12420;42.676;23.262;2024-02-15T02:11:17;8.87;;;6.83;;
12076;SDS011;12420;42.676;23.262;2024-02-15T02:13:44;9.40;;;7.20;;
12076;SDS011;12420;42.676;23.262;2024-02-15T02:16:26;9.33;;;6.93;;
12076;SDS011;12420;42.676;23.262;2024-02-15T02:18:54;8.53;;;6.90;;
12076;SDS011;12420;42.676;23.262;2024-02-15T02:21:22;7.97;;;7.10;;
12076;SDS011;12420;42.676;23.262;2024-02-15T02:23:52;8.67;;;6.87;;
12076;SDS011;12420;42.676;23.262;2024-02-15T02:26:21;7.83;;;7.03;;
12076;SDS011;12420;42.676;23.262;2024-02-15T02:28:49;9.37;;;7.37;;
12076;SDS011;12420;42.676;23.262;2024-02-15T02:31:18;7.77;;;6.97;;
12076;SDS011;12420;42.676;23.262;2024-02-15T02:33:47;7.40;;;6.70;;
12076;SDS011;12420;42.676;23.262;2024-02-15T02:36:16;8.83;;;7.30;;
12076;SDS011;12420;42.676;23.262;2024-02-15T02:38:43;8.90;;;6.83;;
12076;SDS011;12420;42.676;23.262;2024-02-15T02:41:11;7.87;;;6.70;;
12076;SDS011;12420;42.676;23.262;2024-02-15T02:43:40;7.87;;;6.57;;
12076;SDS011;12420;42.676;23.262;2024-02-15T02:46:08;10.13;;;7.50;;
12076;SDS011;12420;42.676;23.262;2024-02-15T02:48:36;9.80;;;7.33;;
12076;SDS011;12420;42.676;23.262;2024-02-15T02:51:03;7.93;;;7.00;;
12076;SDS011;12420;42.676;23.262;2024-02-15T02:53:30;8.73;;;7.03;;
12076;SDS011;12420;42.676;23.262;2024-02-15T02:55:57;8.87;;;7.20;;
12076;SDS011;12420;42.676;23.262;2024-02-15T02:58:24;9.63;;;7.07;;
12076;SDS011;12420;42.676;23.262;2024-02-15T03:00:53;10.10;;;7.40;;
12076;SDS011;12420;42.676;23.262;2024-02-15T03:03:23;10.23;;;7.23;;
12076;SDS011;12420;42.676;23.262;2024-02-15T03:05:49;8.80;;;7.90;;
12076;SDS011;12420;42.676;23.262;2024-02-15T03:08:16;10.40;;;8.10;;
12076;SDS011;12420;42.676;23.262;2024-02-15T03:10:43;11.93;;;8.03;;
12076;SDS011;12420;42.676;23.262;2024-02-15T03:13:10;8.53;;;7.47;;
12076;SDS011;12420;42.676;23.262;2024-02-15T03:15:37;10.60;;;8.20;;
12076;SDS011;12420;42.676;23.262;2024-02-15T03:18:05;11.00;;;7.97;;
12076;SDS011;12420;42.676;23.262;2024-02-15T03:20:33;11.20;;;8.13;;
12076;SDS011;12420;42.676;23.262;2024-02-15T03:23:03;10.00;;;8.27;;
12076;SDS011;12420;42.676;23.262;2024-02-15T03:25:30;9.67;;;8.30;;
12076;SDS011;12420;42.676;23.262;2024-02-15T03:27:59;10.37;;;7.93;;
12076;SDS011;12420;42.676;23.262;2024-02-15T03:30:29;11.37;;;8.33;;
12076;SDS011;12420;42.676;23.262;2024-02-15T03:32:59;10.60;;;8.13;;
12076;SDS011;12420;42.676;23.262;2024-02-15T03:35:27;10.17;;;7.93;;
12076;SDS011;12420;42.676;23.262;2024-02-15T03:37:56;10.83;;;8.27;;
12076;SDS011;12420;42.676;23.262;2024-02-15T03:40:24;13.33;;;8.77;;
12076;SDS011;12420;42.676;23.262;2024-02-15T03:42:52;11.10;;;8.20;;
12076;SDS011;12420;42.676;23.262;2024-02-15T03:45:18;12.30;;;8.73;;
12076;SDS011;12420;42.676;23.262;2024-02-15T03:47:46;12.80;;;9.40;;
12076;SDS011;12420;42.676;23.262;2024-02-15T03:50:15;10.10;;;8.20;;
12076;SDS011;12420;42.676;23.262;2024-02-15T03:52:43;9.37;;;7.40;;
12076;SDS011;12420;42.676;23.262;2024-02-15T03:55:10;9.50;;;7.80;;
12076;SDS011;12420;42.676;23.262;2024-02-15T03:57:37;11.60;;;7.93;;
12076;SDS011;12420;42.676;23.262;2024-02-15T04:00:06;9.73;;;7.63;;
12076;SDS011;12420;42.676;23.262;2024-02-15T04:02:36;12.37;;;8.40;;
12076;SDS011;12420;42.676;23.262;2024-02-15T04:05:05;10.53;;;7.80;;
12076;SDS011;12420;42.676;23.262;2024-02-15T04:07:34;12.00;;;8.50;;
12076;SDS011;12420;42.676;23.262;2024-02-15T04:10:04;11.47;;;8.20;;
12076;SDS011;12420;42.676;23.262;2024-02-15T04:12:33;10.03;;;8.17;;
12076;SDS011;12420;42.676;23.262;2024-02-15T04:15:00;11.57;;;8.70;;
12076;SDS011;12420;42.676;23.262;2024-02-15T04:17:30;10.83;;;8.13;;
12076;SDS011;12420;42.676;23.262;2024-02-15T04:20:00;12.60;;;8.90;;
12076;SDS011;12420;42.676;23.262;2024-02-15T04:22:26;11.67;;;8.63;;
12076;SDS011;12420;42.676;23.262;2024-02-15T04:24:53;11.30;;;8.53;;
12076;SDS011;12420;42.676;23.262;2024-02-15T04:27:23;10.57;;;8.93;;
12076;SDS011;12420;42.676;23.262;2024-02-15T04:29:50;11.47;;;8.53;;
12076;SDS011;12420;42.676;23.262;2024-02-15T04:32:16;10.40;;;8.60;;
12076;SDS011;12420;42.676;23.262;2024-02-15T04:34:44;10.40;;;8.60;;
12076;SDS011;12420;42.676;23.262;2024-02-15T04:37:11;12.30;;;9.20;;
12076;SDS011;12420;42.676;23.262;2024-02-15T04:39:39;10.57;;;8.90;;
12076;SDS011;12420;42.676;23.262;2024-02-15T04:42:06;10.83;;;8.47;;
12076;SDS011;12420;42.676;23.262;2024-02-15T04:44:37;12.00;;;8.80;;
12076;SDS011;12420;42.676;23.262;2024-02-15T04:47:04;12.30;;;9.53;;
12076;SDS011;12420;42.676;23.262;2024-02-15T04:49:32;11.37;;;8.27;;
12076;SDS011;12420;42.676;23.262;2024-02-15T04:51:59;11.07;;;8.27;;
12076;SDS011;12420;42.676;23.262;2024-02-15T04:54:27;9.83;;;7.77;;
12076;SDS011;12420;42.676;23.262;2024-02-15T04:56:54;10.67;;;7.73;;
12076;SDS011;12420;42.676;23.262;2024-02-15T04:59:22;10.83;;;8.30;;
12076;SDS011;12420;42.676;23.262;2024-02-15T05:01:52;10.97;;;8.67;;
12076;SDS011;12420;42.676;23.262;2024-02-15T05:04:19;14.07;;;8.83;;
12076;SDS011;12420;42.676;23.262;2024-02-15T05:06:46;12.33;;;8.70;;
12076;SDS011;12420;42.676;23.262;2024-02-15T05:09:12;11.70;;;8.20;;
12076;SDS011;12420;42.676;23.262;2024-02-15T05:11:40;12.70;;;8.40;;
12076;SDS011;12420;42.676;23.262;2024-02-15T05:14:11;14.10;;;8.10;;
12076;SDS011;12420;42.676;23.262;2024-02-15T05:16:38;12.97;;;8.97;;
12076;SDS011;12420;42.676;23.262;2024-02-15T05:19:08;13.83;;;9.17;;
12076;SDS011;12420;42.676;23.262;2024-02-15T05:21:36;9.93;;;8.10;;
12076;SDS011;12420;42.676;23.262;2024-02-15T05:24:03;10.53;;;7.90;;
12076;SDS011;12420;42.676;23.262;2024-02-15T05:26:30;12.83;;;8.27;;
12076;SDS011;12420;42.676;23.262;2024-02-15T05:28:57;12.67;;;8.37;;
12076;SDS011;12420;42.676;23.262;2024-02-15T05:31:24;13.33;;;9.10;;
12076;SDS011;12420;42.676;23.262;2024-02-15T05:33:52;11.67;;;7.93;;
12076;SDS011;12420;42.676;23.262;2024-02-15T05:36:21;12.10;;;8.43;;
12076;SDS011;12420;42.676;23.262;2024-02-15T05:38:51;10.87;;;8.03;;
12076;SDS011;12420;42.676;23.262;2024-02-15T05:41:19;12.17;;;8.40;;
12076;SDS011;12420;42.676;23.262;2024-02-15T05:43:46;12.50;;;8.37;;
12076;SDS011;12420;42.676;23.262;2024-02-15T05:46:14;12.00;;;8.33;;
12076;SDS011;12420;42.676;23.262;2024-02-15T05:48:41;10.40;;;8.50;;
12076;SDS011;12420;42.676;23.262;2024-02-15T05:51:08;12.80;;;8.80;;
12076;SDS011;12420;42.676;23.262;2024-02-15T05:53:36;12.83;;;7.97;;
12076;SDS011;12420;42.676;23.262;2024-02-15T05:56:03;11.90;;;8.27;;
12076;SDS011;12420;42.676;23.262;2024-02-15T05:58:30;11.03;;;8.13;;
12076;SDS011;12420;42.676;23.262;2024-02-15T06:00:57;14.70;;;8.37;;
12076;SDS011;12420;42.676;23.262;2024-02-15T06:03:26;12.87;;;8.60;;
12076;SDS011;12420;42.676;23.262;2024-02-15T06:05:53;13.33;;;8.33;;
12076;SDS011;12420;42.676;23.262;2024-02-15T06:08:23;10.13;;;8.23;;
12076;SDS011;12420;42.676;23.262;2024-02-15T06:10:51;13.27;;;8.27;;
12076;SDS011;12420;42.676;23.262;2024-02-15T06:13:18;11.70;;;8.00;;
12076;SDS011;12420;42.676;23.262;2024-02-15T06:15:45;10.30;;;8.13;;
12076;SDS011;12420;42.676;23.262;2024-02-15T06:18:17;11.70;;;8.50;;
12076;SDS011;12420;42.676;23.262;2024-02-15T06:20:46;13.93;;;8.47;;
12076;SDS011;12420;42.676;23.262;2024-02-15T06:23:15;14.63;;;8.87;;
12076;SDS011;12420;42.676;23.262;2024-02-15T06:25:41;13.33;;;9.17;;
12076;SDS011;12420;42.676;23.262;2024-02-15T06:28:10;14.33;;;8.77;;
12076;SDS011;12420;42.676;23.262;2024-02-15T06:31:00;11.43;;;8.43;;
12076;SDS011;12420;42.676;23.262;2024-02-15T06:33:44;10.97;;;8.20;;
12076;SDS011;12420;42.676;23.262;2024-02-15T06:36:25;9.70;;;7.73;;
12076;SDS011;12420;42.676;23.262;2024-02-15T06:39:09;9.57;;;7.73;;
12076;SDS011;12420;42.676;23.262;2024-02-15T06:41:53;12.70;;;8.53;;
12076;SDS011;12420;42.676;23.262;2024-02-15T06:44:21;12.37;;;9.03;;
12076;SDS011;12420;42.676;23.262;2024-02-15T06:46:49;10.63;;;8.17;;
12076;SDS011;12420;42.676;23.262;2024-02-15T06:49:16;11.40;;;8.27;;
12076;SDS011;12420;42.676;23.262;2024-02-15T06:51:43;11.20;;;7.83;;
12076;SDS011;12420;42.676;23.262;2024-02-15T06:54:09;10.47;;;8.37;;
12076;SDS011;12420;42.676;23.262;2024-02-15T06:56:36;13.70;;;8.57;;
12076;SDS011;12420;42.676;23.262;2024-02-15T06:59:04;12.57;;;8.93;;
12076;SDS011;12420;42.676;23.262;2024-02-15T07:01:32;11.40;;;8.47;;
12076;SDS011;12420;42.676;23.262;2024-02-15T07:04:00;12.63;;;8.60;;
12076;SDS011;12420;42.676;23.262;2024-02-15T07:06:28;12.07;;;8.27;;
12076;SDS011;12420;42.676;23.262;2024-02-15T07:08:56;11.90;;;8.43;;
12076;SDS011;12420;42.676;23.262;2024-02-15T07:11:23;10.50;;;7.47;;
12076;SDS011;12420;42.676;23.262;2024-02-15T07:13:50;15.27;;;8.20;;
12076;SDS011;12420;42.676;23.262;2024-02-15T07:16:18;9.40;;;7.70;;
12076;SDS011;12420;42.676;23.262;2024-02-15T07:18:46;11.07;;;7.97;;
12076;SDS011;12420;42.676;23.262;2024-02-15T07:21:13;12.97;;;7.83;;
12076;SDS011;12420;42.676;23.262;2024-02-15T07:23:44;10.23;;;6.73;;
12076;SDS011;12420;42.676;23.262;2024-02-15T07:26:12;11.33;;;8.03;;
12076;SDS011;12420;42.676;23.262;2024-02-15T07:28:40;9.77;;;7.10;;
12076;SDS011;12420;42.676;23.262;2024-02-15T07:31:07;10.80;;;7.43;;
12076;SDS011;12420;42.676;23.262;2024-02-15T07:33:33;14.03;;;8.30;;
12076;SDS011;12420;42.676;23.262;2024-02-15T07:36:02;9.90;;;7.27;;
12076;SDS011;12420;42.676;23.262;2024-02-15T07:38:29;10.77;;;7.33;;
12076;SDS011;12420;42.676;23.262;2024-02-15T07:40:59;14.30;;;7.30;;
12076;SDS011;12420;42.676;23.262;2024-02-15T07:43:26;11.63;;;7.33;;
12076;SDS011;12420;42.676;23.262;2024-02-15T07:45:53;9.43;;;7.33;;
12076;SDS011;12420;42.676;23.262;2024-02-15T07:48:20;8.87;;;7.07;;
12076;SDS011;12420;42.676;23.262;2024-02-15T07:50:47;11.50;;;7.43;;
12076;SDS011;12420;42.676;23.262;2024-02-15T07:53:15;11.73;;;7.17;;
12076;SDS011;12420;42.676;23.262;2024-02-15T07:55:42;11.80;;;7.33;;
12076;SDS011;12420;42.676;23.262;2024-02-15T07:58:09;10.63;;;7.60;;
12076;SDS011;12420;42.676;23.262;2024-02-15T08:00:35;15.37;;;7.80;;
12076;SDS011;12420;42.676;23.262;2024-02-15T08:03:04;9.07;;;7.07;;
12076;SDS011;12420;42.676;23.262;2024-02-15T08:05:32;12.73;;;7.77;;
12076;SDS011;12420;42.676;23.262;2024-02-15T08:08:00;11.67;;;7.20;;
12076;SDS011;12420;42.676;23.262;2024-02-15T08:10:30;10.83;;;7.03;;
12076;SDS011;12420;42.676;23.262;2024-02-15T08:12:57;9.60;;;7.43;;
12076;SDS011;12420;42.676;23.262;2024-02-15T08:15:24;10.47;;;7.23;;
12076;SDS011;12420;42.676;23.262;2024-02-15T08:17:52;9.90;;;6.80;;
12076;SDS011;12420;42.676;23.262;2024-02-15T08:20:20;8.30;;;6.67;;
12076;SDS011;12420;42.676;23.262;2024-02-15T08:22:47;11.20;;;7.47;;
12076;SDS011;12420;42.676;23.262;2024-02-15T08:25:14;9.50;;;6.93;;
12076;SDS011;12420;42.676;23.262;2024-02-15T08:27:46;8.37;;;6.77;;
12076;SDS011;12420;42.676;23.262;2024-02-15T08:30:15;8.77;;;6.80;;
12076;SDS011;12420;42.676;23.262;2024-02-15T08:32:42;9.43;;;6.83;;
12076;SDS011;12420;42.676;23.262;2024-02-15T08:35:10;10.70;;;7.27;;
12076;SDS011;12420;42.676;23.262;2024-02-15T08:37:38;9.63;;;6.77;;
12076;SDS011;12420;42.676;23.262;2024-02-15T08:40:05;8.80;;;7.10;;
12076;SDS011;12420;42.676;23.262;2024-02-15T08:42:36;9.13;;;7.23;;
12076;SDS011;12420;42.676;23.262;2024-02-15T08:45:06;9.73;;;6.83;;
12076;SDS011;12420;42.676;23.262;2024-02-15T08:47:35;9.73;;;7.20;;
12076;SDS011;12420;42.676;23.262;2024-02-15T08:50:04;12.37;;;7.43;;
12076;SDS011;12420;42.676;23.262;2024-02-15T08:52:33;9.80;;;7.23;;
12076;SDS011;12420;42.676;23.262;2024-02-15T08:55:03;10.70;;;6.83;;
12076;SDS011;12420;42.676;23.262;2024-02-15T08:57:32;7.57;;;6.47;;
12076;SDS011;12420;42.676;23.262;2024-02-15T08:59:58;10.43;;;7.40;;
12076;SDS011;12420;42.676;23.262;2024-02-15T09:02:26;8.80;;;6.90;;
12076;SDS011;12420;42.676;23.262;2024-02-15T09:04:53;9.30;;;7.60;;
12076;SDS011;12420;42.676;23.262;2024-02-15T09:07:20;10.17;;;7.23;;
12076;SDS011;12420;42.676;23.262;2024-02-15T09:09:47;9.40;;;6.93;;
12076;SDS011;12420;42.676;23.262;2024-02-15T09:12:14;9.03;;;7.33;;
12076;SDS011;12420;42.676;23.262;2024-02-15T09:14:41;9.27;;;7.23;;
12076;SDS011;12420;42.676;23.262;2024-02-15T09:17:07;9.50;;;6.90;;
12076;SDS011;12420;42.676;23.262;2024-02-15T09:19:36;8.23;;;6.70;;
12076;SDS011;12420;42.676;23.262;2024-02-15T09:22:03;11.63;;;7.13;;
12076;SDS011;12420;42.676;23.262;2024-02-15T09:24:31;9.47;;;7.40;;
12076;SDS011;12420;42.676;23.262;2024-02-15T09:26:58;10.13;;;7.03;;
12076;SDS011;12420;42.676;23.262;2024-02-15T09:29:26;9.20;;;6.93;;
12076;SDS011;12420;42.676;23.262;2024-02-15T09:31:55;11.30;;;7.37;;
12076;SDS011;12420;42.676;23.262;2024-02-15T09:34:22;8.97;;;7.10;;
12076;SDS011;12420;42.676;23.262;2024-02-15T09:36:51;9.03;;;7.43;;
12076;SDS011;12420;42.676;23.262;2024-02-15T09:39:17;10.10;;;6.77;;
12076;SDS011;12420;42.676;23.262;2024-02-15T09:41:44;8.87;;;6.60;;
12076;SDS011;12420;42.676;23.262;2024-02-15T09:44:11;8.53;;;6.20;;
12076;SDS011;12420;42.676;23.262;2024-02-15T09:46:42;8.23;;;5.97;;
12076;SDS011;12420;42.676;23.262;2024-02-15T09:49:11;9.00;;;6.73;;
12076;SDS011;12420;42.676;23.262;2024-02-15T09:51:39;7.33;;;6.63;;
12076;SDS011;12420;42.676;23.262;2024-02-15T09:54:09;7.03;;;6.23;;
12076;SDS011;12420;42.676;23.262;2024-02-15T09:56:38;8.43;;;6.20;;
12076;SDS011;12420;42.676;23.262;2024-02-15T09:59:06;7.23;;;6.30;;
12076;SDS011;12420;42.676;23.262;2024-02-15T10:01:33;9.97;;;7.40;;
12076;SDS011;12420;42.676;23.262;2024-02-15T10:04:02;7.67;;;6.27;;
12076;SDS011;12420;42.676;23.262;2024-02-15T10:06:32;12.33;;;8.23;;
12076;SDS011;12420;42.676;23.262;2024-02-15T10:11:53;13.10;;;8.47;;
12076;SDS011;12420;42.676;23.262;2024-02-15T10:14:21;8.40;;;6.97;;
12076;SDS011;12420;42.676;23.262;2024-02-15T10:16:49;7.20;;;6.17;;
12076;SDS011;12420;42.676;23.262;2024-02-15T10:19:17;12.37;;;6.40;;
12076;SDS011;12420;42.676;23.262;2024-02-15T10:21:45;9.30;;;6.80;;
12076;SDS011;12420;42.676;23.262;2024-02-15T10:24:12;11.67;;;7.90;;
12076;SDS011;12420;42.676;23.262;2024-02-15T10:26:40;12.53;;;7.80;;
12076;SDS011;12420;42.676;23.262;2024-02-15T10:29:08;9.63;;;6.37;;
12076;SDS011;12420;42.676;23.262;2024-02-15T10:31:36;12.23;;;6.90;;
12076;SDS011;12420;42.676;23.262;2024-02-15T10:34:05;10.20;;;6.97;;
12076;SDS011;12420;42.676;23.262;2024-02-15T10:36:34;9.83;;;7.23;;
12076;SDS011;12420;42.676;23.262;2024-02-15T10:39:10;8.10;;;6.50;;
12076;SDS011;12420;42.676;23.262;2024-02-15T10:41:44;8.73;;;7.10;;
12076;SDS011;12420;42.676;23.262;2024-02-15T10:44:12;11.80;;;7.13;;
12076;SDS011;12420;42.676;23.262;2024-02-15T10:46:43;9.27;;;6.57;;
12076;SDS011;12420;42.676;23.262;2024-02-15T10:49:12;10.03;;;7.27;;
12076;SDS011;12420;42.676;23.262;2024-02-15T10:51:41;9.03;;;6.73;;
12076;SDS011;12420;42.676;23.262;2024-02-15T10:54:11;7.10;;;6.30;;
12076;SDS011;12420;42.676;23.262;2024-02-15T10:56:43;7.77;;;6.67;;
12076;SDS011;12420;42.676;23.262;2024-02-15T10:59:17;6.43;;;5.83;;
12076;SDS011;12420;42.676;23.262;2024-02-15T11:01:45;12.17;;;6.50;;
12076;SDS011;12420;42.676;23.262;2024-02-15T11:04:14;7.23;;;6.17;;
12076;SDS011;12420;42.676;23.262;2024-02-15T11:06:42;7.47;;;5.90;;
12076;SDS011;12420;42.676;23.262;2024-02-15T11:09:10;7.70;;;6.30;;
12076;SDS011;12420;42.676;23.262;2024-02-15T11:11:39;9.60;;;6.10;;
12076;SDS011;12420;42.676;23.262;2024-02-15T11:14:24;6.33;;;5.67;;
12076;SDS011;12420;42.676;23.262;2024-02-15T11:16:52;16.90;;;6.10;;
12076;SDS011;12420;42.676;23.262;2024-02-15T11:22:12;5.80;;;5.20;;
12076;SDS011;12420;42.676;23.262;2024-02-15T11:24:47;5.63;;;5.03;;
12076;SDS011;12420;42.676;23.262;2024-02-15T11:27:23;7.10;;;5.33;;
12076;SDS011;12420;42.676;23.262;2024-02-15T11:29:54;6.43;;;4.80;;
12076;SDS011;12420;42.676;23.262;2024-02-15T11:32:36;5.53;;;5.03;;
12076;SDS011;12420;42.676;23.262;2024-02-15T11:35:05;7.73;;;5.20;;
12076;SDS011;12420;42.676;23.262;2024-02-15T11:40:28;5.77;;;4.70;;
12076;SDS011;12420;42.676;23.262;2024-02-15T11:46:16;6.47;;;5.83;;
12076;SDS011;12420;42.676;23.262;2024-02-15T11:48:44;6.37;;;5.33;;
12076;SDS011;12420;42.676;23.262;2024-02-15T11:51:11;6.87;;;5.40;;
12076;SDS011;12420;42.676;23.262;2024-02-15T11:53:57;5.53;;;4.80;;
12076;SDS011;12420;42.676;23.262;2024-02-15T11:59:38;6.33;;;5.27;;
12076;SDS011;12420;42.676;23.262;2024-02-15T12:02:23;5.20;;;4.70;;
12076;SDS011;12420;42.676;23.262;2024-02-15T12:05:07;5.10;;;4.60;;
12076;SDS011;12420;42.676;23.262;2024-02-15T12:07:51;6.80;;;4.70;;
12076;SDS011;12420;42.676;23.262;2024-02-15T12:10:36;5.40;;;4.67;;
12076;SDS011;12420;42.676;23.262;2024-02-15T12:13:20;7.50;;;4.77;;
12076;SDS011;12420;42.676;23.262;2024-02-15T12:16:04;7.43;;;5.20;;
12076;SDS011;12420;42.676;23.262;2024-02-15T12:18:50;6.27;;;4.77;;
12076;SDS011;12420;42.676;23.262;2024-02-15T12:21:19;5.00;;;4.50;;
12076;SDS011;12420;42.676;23.262;2024-02-15T12:23:50;4.97;;;4.50;;
12076;SDS011;12420;42.676;23.262;2024-02-15T12:26:18;12.33;;;6.27;;
12076;SDS011;12420;42.676;23.262;2024-02-15T12:28:49;9.60;;;5.33;;
12076;SDS011;12420;42.676;23.262;2024-02-15T12:31:19;7.03;;;4.90;;
12076;SDS011;12420;42.676;23.262;2024-02-15T12:33:47;5.17;;;4.67;;
12076;SDS011;12420;42.676;23.262;2024-02-15T12:36:28;5.33;;;4.83;;
12076;SDS011;12420;42.676;23.262;2024-02-15T12:39:01;6.60;;;5.20;;
12076;SDS011;12420;42.676;23.262;2024-02-15T12:41:28;8.20;;;5.83;;
12076;SDS011;12420;42.676;23.262;2024-02-15T12:43:56;14.80;;;8.03;;
12076;SDS011;12420;42.676;23.262;2024-02-15T12:46:23;6.50;;;5.33;;
12076;SDS011;12420;42.676;23.262;2024-02-15T12:48:52;7.80;;;5.70;;
12076;SDS011;12420;42.676;23.262;2024-02-15T12:51:38;9.00;;;5.00;;
12076;SDS011;12420;42.676;23.262;2024-02-15T12:54:08;5.33;;;4.83;;
12076;SDS011;12420;42.676;23.262;2024-02-15T12:56:36;5.70;;;5.20;;
12076;SDS011;12420;42.676;23.262;2024-02-15T12:59:04;7.57;;;4.87;;
12076;SDS011;12420;42.676;23.262;2024-02-15T13:01:31;5.83;;;5.10;;
12076;SDS011;12420;42.676;23.262;2024-02-15T13:03:59;6.23;;;4.87;;
12076;SDS011;12420;42.676;23.262;2024-02-15T13:06:27;6.23;;;5.47;;
12076;SDS011;12420;42.676;23.262;2024-02-15T13:08:54;5.00;;;4.60;;
12076;SDS011;12420;42.676;23.262;2024-02-15T13:11:20;6.90;;;5.00;;
12076;SDS011;12420;42.676;23.262;2024-02-15T13:13:48;6.90;;;5.40;;
12076;SDS011;12420;42.676;23.262;2024-02-15T13:16:15;8.77;;;6.27;;
12076;SDS011;12420;42.676;23.262;2024-02-15T13:18:42;7.50;;;5.33;;
12076;SDS011;12420;42.676;23.262;2024-02-15T13:21:09;8.13;;;5.30;;
12076;SDS011;12420;42.676;23.262;2024-02-15T13:23:37;6.47;;;5.20;;
12076;SDS011;12420;42.676;23.262;2024-02-15T13:26:04;8.07;;;5.50;;
12076;SDS011;12420;42.676;23.262;2024-02-15T13:28:33;5.70;;;4.50;;
12076;SDS011;12420;42.676;23.262;2024-02-15T13:31:00;7.27;;;4.87;;
12076;SDS011;12420;42.676;23.262;2024-02-15T13:33:28;7.30;;;4.80;;
12076;SDS011;12420;42.676;23.262;2024-02-15T13:35:56;6.27;;;4.87;;
12076;SDS011;12420;42.676;23.262;2024-02-15T13:38:23;6.30;;;5.00;;
12076;SDS011;12420;42.676;23.262;2024-02-15T13:40:53;5.73;;;5.17;;
12076;SDS011;12420;42.676;23.262;2024-02-15T13:43:21;7.30;;;5.10;;
12076;SDS011;12420;42.676;23.262;2024-02-15T13:45:48;7.13;;;4.90;;
12076;SDS011;12420;42.676;23.262;2024-02-15T13:48:16;6.73;;;4.80;;
12076;SDS011;12420;42.676;23.262;2024-02-15T13:50:43;5.13;;;4.30;;
12076;SDS011;12420;42.676;23.262;2024-02-15T13:53:10;5.30;;;4.70;;
12076;SDS011;12420;42.676;23.262;2024-02-15T13:55:38;6.80;;;4.80;;
12076;SDS011;12420;42.676;23.262;2024-02-15T13:58:06;4.80;;;4.40;;
12076;SDS011;12420;42.676;23.262;2024-02-15T14:00:37;5.80;;;4.53;;
12076;SDS011;12420;42.676;23.262;2024-02-15T14:03:07;5.37;;;4.73;;
12076;SDS011;12420;42.676;23.262;2024-02-15T14:05:35;7.33;;;5.27;;
12076;SDS011;12420;42.676;23.262;2024-02-15T14:08:05;6.97;;;4.80;;
12076;SDS011;12420;42.676;23.262;2024-02-15T14:10:34;10.33;;;4.90;;
12076;SDS011;12420;42.676;23.262;2024-02-15T14:13:01;5.17;;;4.67;;
12076;SDS011;12420;42.676;23.262;2024-02-15T14:15:32;8.30;;;5.13;;
12076;SDS011;12420;42.676;23.262;2024-02-15T14:18:02;9.00;;;5.60;;
12076;SDS011;12420;42.676;23.262;2024-02-15T14:20:29;4.87;;;4.43;;
12076;SDS011;12420;42.676;23.262;2024-02-15T14:22:56;8.50;;;4.97;;
12076;SDS011;12420;42.676;23.262;2024-02-15T14:25:23;7.47;;;5.00;;
12076;SDS011;12420;42.676;23.262;2024-02-15T14:27:50;7.20;;;4.93;;
12076;SDS011;12420;42.676;23.262;2024-02-15T14:30:18;6.30;;;4.70;;
12076;SDS011;12420;42.676;23.262;2024-02-15T14:33:04;5.73;;;5.13;;
12076;SDS011;12420;42.676;23.262;2024-02-15T14:35:34;6.87;;;5.13;;
12076;SDS011;12420;42.676;23.262;2024-02-15T14:38:02;5.30;;;4.80;;
12076;SDS011;12420;42.676;23.262;2024-02-15T14:40:32;7.23;;;4.80;;
12076;SDS011;12420;42.676;23.262;2024-02-15T14:42:59;6.27;;;5.30;;
12076;SDS011;12420;42.676;23.262;2024-02-15T14:45:26;8.60;;;5.63;;
12076;SDS011;12420;42.676;23.262;2024-02-15T14:47:52;6.97;;;5.13;;
12076;SDS011;12420;42.676;23.262;2024-02-15T14:50:21;8.50;;;5.37;;
12076;SDS011;12420;42.676;23.262;2024-02-15T14:52:48;9.50;;;5.17;;